Time;durP1;ratioP1;P1;durP2;ratioP2;P2;SDS_P1;SDS_P2;PMS_P1;PMS_P2;Temp;Humidity;BMP_temperature;BMP_pressure;BME280_temperature;BME280_humidity;BME280_pressure;Samples;Min_cycle;Max_cycle;Signal;HPM_P1;HPM_P2
2022/07/19 00:01:32;;;;;;;3.37;1.10;;;;;;;17.49;47.42;99822.78;4346814;33;34367;-85
2022/07/19 00:04:01;;;;;;;1.87;1.08;;;;;;;17.60;46.60;99823.31;4346615;33;34380;-85
2022/07/19 00:06:29;;;;;;;1.40;1.10;;;;;;;17.01;48.50;99832.13;4334794;33;33752;-84
2022/07/19 00:08:57;;;;;;;2.47;1.30;;;;;;;17.36;47.83;99824.94;4332727;33;34044;-85
2022/07/19 00:11:25;;;;;;;1.65;1.23;;;;;;;17.35;47.33;99828.50;4347925;33;34902;-84
2022/07/19 00:13:53;;;;;;;1.80;1.23;;;;;;;17.41;47.27;99825.66;4338504;33;34322;-85
2022/07/19 00:16:21;;;;;;;1.83;1.12;;;;;;;17.50;47.01;99820.09;4346542;33;34632;-85
2022/07/19 00:18:50;;;;;;;1.85;1.05;;;;;;;17.52;46.48;99826.19;4346300;33;35762;-85
2022/07/19 00:21:18;;;;;;;1.90;1.30;;;;;;;17.16;47.86;99831.66;4347941;33;35100;-85
2022/07/19 00:23:46;;;;;;;1.48;1.10;;;;;;;17.12;47.77;99829.16;4346201;33;33629;-85
2022/07/19 00:26:14;;;;;;;2.30;1.00;;;;;;;17.56;46.52;99821.66;4347841;33;33823;-85
2022/07/19 00:28:42;;;;;;;2.20;1.05;;;;;;;17.58;46.91;99823.38;4346170;33;35737;-85
2022/07/19 00:31:10;;;;;;;1.40;1.10;;;;;;;17.60;46.69;99821.53;4333187;33;35067;-85
2022/07/19 00:33:38;;;;;;;1.33;0.98;;;;;;;17.58;47.47;99827.78;4344507;33;33545;-84
2022/07/19 00:36:06;;;;;;;2.92;1.73;;;;;;;17.44;47.43;99815.03;4347653;33;34300;-85
2022/07/19 00:38:34;;;;;;;2.10;1.20;;;;;;;17.49;47.29;99822.78;4332889;33;34633;-85
2022/07/19 00:41:02;;;;;;;1.12;1.00;;;;;;;17.60;47.18;99826.81;4347658;33;35286;-85
2022/07/19 00:43:30;;;;;;;2.78;1.17;;;;;;;17.16;48.06;99826.41;4346688;33;33602;-85
2022/07/19 00:45:58;;;;;;;2.12;1.17;;;;;;;17.15;47.94;99824.66;4343623;33;34691;-85
2022/07/19 00:48:26;;;;;;;2.33;1.20;;;;;;;17.47;47.41;99824.59;4347361;33;35816;-85
2022/07/19 00:50:54;;;;;;;1.67;1.20;;;;;;;17.25;47.71;99820.84;4347965;33;33558;-85
2022/07/19 00:53:23;;;;;;;4.72;1.20;;;;;;;17.08;48.07;99823.13;4349591;33;33209;-85
2022/07/19 00:55:52;;;;;;;3.28;1.05;;;;;;;17.52;47.27;99823.53;4334877;33;33584;-85
2022/07/19 00:58:20;;;;;;;2.10;0.93;;;;;;;17.48;47.25;99821.94;4336242;33;34980;-85
2022/07/19 01:00:48;;;;;;;1.80;1.00;;;;;;;17.08;48.19;99827.53;4347818;33;34343;-85
2022/07/19 01:03:16;;;;;;;3.35;1.30;;;;;;;17.33;48.03;99827.66;4334971;33;34350;-85
2022/07/19 01:05:46;;;;;;;2.05;1.42;;;;;;;17.23;48.02;99827.09;4334472;33;33949;-85
2022/07/19 01:08:14;;;;;;;2.90;1.10;;;;;;;16.80;48.94;99828.31;4349524;33;34255;-85
2022/07/19 01:10:42;;;;;;;5.90;1.15;;;;;;;16.05;51.78;99825.94;4347791;33;34450;-85
2022/07/19 01:13:13;;;;;;;2.15;1.45;;;;;;;16.66;50.12;99820.81;4349395;33;34419;-85
2022/07/19 01:15:42;;;;;;;3.12;1.30;;;;;;;17.06;49.11;99819.69;4334801;33;34727;-85
2022/07/19 01:18:10;;;;;;;1.55;1.23;;;;;;;17.38;48.25;99820.47;4343930;33;35173;-85
2022/07/19 01:20:38;;;;;;;2.55;1.30;;;;;;;17.18;48.73;99823.72;4345994;33;35151;-85
2022/07/19 01:23:06;;;;;;;3.33;1.20;;;;;;;17.01;49.03;99825.09;4347956;33;33998;-85
2022/07/19 01:25:36;;;;;;;1.42;1.00;;;;;;;17.29;47.91;99820.78;4347479;33;33937;-85
2022/07/19 01:28:05;;;;;;;1.27;1.00;;;;;;;17.18;47.72;99821.09;4349277;33;34595;-85
2022/07/19 01:30:34;;;;;;;1.62;1.02;;;;;;;17.35;46.97;99816.19;4334428;33;34392;-85
2022/07/19 01:33:03;;;;;;;1.45;1.10;;;;;;;16.32;49.83;99816.47;4336128;33;34044;-85
2022/07/19 01:35:31;;;;;;;2.45;0.98;;;;;;;16.82;48.49;99811.59;4347576;33;34806;-85
2022/07/19 01:37:59;;;;;;;1.95;1.10;;;;;;;16.72;48.72;99815.38;4346210;33;35051;-85
2022/07/19 01:40:27;;;;;;;2.10;1.17;;;;;;;15.77;52.14;99812.63;4347753;33;35119;-85
2022/07/19 01:42:55;;;;;;;2.78;1.20;;;;;;;16.53;49.41;99812.41;4349025;33;33722;-85
2022/07/19 01:45:23;;;;;;;2.37;1.25;;;;;;;15.66;52.29;99808.47;4347247;33;34605;-85
2022/07/19 01:47:51;;;;;;;1.05;0.90;;;;;;;16.51;49.90;99811.59;4349135;33;35093;-85
2022/07/19 01:50:19;;;;;;;2.17;1.15;;;;;;;16.34;49.23;99804.19;4347266;33;34406;-85
2022/07/19 01:52:47;;;;;;;20.35;3.87;;;;;;;16.81;48.19;99804.59;4348194;33;33582;-85
2022/07/19 01:55:19;;;;;;;1.95;1.20;;;;;;;16.60;49.02;99806.06;4323852;33;34000;-85
2022/07/19 01:57:48;;;;;;;6.40;1.27;;;;;;;15.71;51.56;99798.72;4334346;33;35455;-85
2022/07/19 02:00:17;;;;;;;3.95;1.12;;;;;;;15.42;53.05;99801.19;4333005;33;34321;-85
2022/07/19 02:02:45;;;;;;;1.42;1.20;;;;;;;15.96;50.91;99802.53;4334345;33;33522;-85
2022/07/19 02:05:13;;;;;;;1.67;1.30;;;;;;;16.64;49.04;99804.22;4347379;33;34741;-85
2022/07/19 02:07:46;;;;;;;2.12;1.20;;;;;;;16.80;49.37;99805.50;4348527;33;34969;-85
2022/07/19 02:10:16;;;;;;;3.28;1.30;;;;;;;16.40;49.40;99813.66;4320162;33;35110;-85
2022/07/19 02:12:44;;;;;;;1.70;1.27;;;;;;;16.60;49.26;99808.69;4321095;33;33717;-85
2022/07/19 02:15:12;;;;;;;2.35;1.17;;;;;;;16.55;50.04;99807.09;4341242;33;34642;-85
2022/07/19 02:17:40;;;;;;;1.45;1.02;;;;;;;16.39;50.20;99812.78;4347340;33;34629;-85
2022/07/19 02:20:08;;;;;;;2.80;1.30;;;;;;;16.18;51.07;99813.34;4347207;33;34107;-85
2022/07/19 02:22:36;;;;;;;3.50;1.33;;;;;;;15.24;53.71;99813.81;4348940;33;33648;-85
2022/07/19 02:25:05;;;;;;;4.45;1.65;;;;;;;15.16;53.82;99821.88;4345660;33;33868;-85
2022/07/19 02:27:32;;;;;;;2.45;1.30;;;;;;;15.88;51.58;99810.59;4348976;33;34823;-85
2022/07/19 02:30:01;;;;;;;4.55;1.10;;;;;;;16.06;51.09;99812.78;4347127;33;34388;-85
2022/07/19 02:32:29;;;;;;;3.67;1.20;;;;;;;15.95;51.11;99824.44;4348799;33;33558;-85
2022/07/19 02:34:57;;;;;;;1.42;1.10;;;;;;;15.59;51.65;99820.03;4334159;33;33930;-85
2022/07/19 02:37:25;;;;;;;2.60;1.15;;;;;;;16.34;50.00;99819.06;4347409;33;34930;-85
2022/07/19 02:39:53;;;;;;;2.33;1.30;;;;;;;16.33;50.11;99822.59;4333808;33;34001;-85
2022/07/19 02:42:21;;;;;;;1.98;1.20;;;;;;;15.58;51.60;99820.91;4348878;33;33519;-85
2022/07/19 02:44:49;;;;;;;7.47;1.58;;;;;;;15.86;51.34;99815.03;4347124;33;34738;-85
2022/07/19 02:47:17;;;;;;;1.87;1.33;;;;;;;15.68;51.11;99824.19;4335473;33;34451;-86
2022/07/19 02:49:45;;;;;;;2.50;1.25;;;;;;;15.85;51.24;99821.19;4347891;33;34797;-89
2022/07/19 02:52:13;;;;;;;2.10;1.30;;;;;;;15.70;51.70;99822.38;4335415;33;33358;-86
2022/07/19 02:54:41;;;;;;;1.67;1.08;;;;;;;15.89;51.46;99813.19;4345676;33;33533;-85
2022/07/19 02:57:09;;;;;;;1.92;1.30;;;;;;;15.44;52.93;99815.12;4347379;33;35747;-86
2022/07/19 02:59:37;;;;;;;3.42;1.40;;;;;;;16.00;51.38;99820.78;4347317;33;34417;-86
2022/07/19 03:02:04;;;;;;;1.92;1.30;;;;;;;15.88;51.07;99810.59;4348725;33;33985;-86
2022/07/19 03:04:32;;;;;;;2.95;1.08;;;;;;;15.74;51.30;99824.03;4333387;33;34074;-86
2022/07/19 03:07:00;;;;;;;1.65;0.93;;;;;;;15.68;51.97;99824.19;4348608;33;35897;-85
2022/07/19 03:09:28;;;;;;;1.40;1.08;;;;;;;15.24;52.70;99828.69;4345053;33;34628;-86
2022/07/19 03:11:56;;;;;;;2.10;1.23;;;;;;;15.41;52.49;99812.59;4341769;33;34410;-86
2022/07/19 03:14:24;;;;;;;2.97;0.98;;;;;;;14.68;54.20;99821.13;4346482;33;33593;-85
2022/07/19 03:16:52;;;;;;;4.15;1.20;;;;;;;14.62;55.42;99821.25;4347101;33;34941;-85
2022/07/19 03:19:20;;;;;;;1.58;1.10;;;;;;;15.56;52.29;99820.09;4340938;33;35101;-86
2022/07/19 03:21:48;;;;;;;2.47;1.20;;;;;;;15.15;53.82;99824.53;4348611;33;33113;-86
2022/07/19 03:24:16;;;;;;;2.55;1.20;;;;;;;15.11;53.91;99825.50;4347775;33;33485;-86
2022/07/19 03:26:44;;;;;;;2.33;1.25;;;;;;;15.39;52.26;99824.84;4348041;33;35201;-86
2022/07/19 03:29:12;;;;;;;1.35;1.10;;;;;;;16.03;50.74;99828.59;4347013;33;34602;-86
2022/07/19 03:31:40;;;;;;;1.15;1.02;;;;;;;16.01;51.42;99830.41;4344843;33;32529;-86
2022/07/19 03:34:08;;;;;;;3.50;1.50;;;;;;;15.33;53.89;99839.84;4333693;33;34637;-86
2022/07/19 03:36:36;;;;;;;1.52;1.12;;;;;;;15.08;54.84;99833.41;4346794;33;34731;-86
2022/07/19 03:39:04;;;;;;;26.98;1.85;;;;;;;14.77;56.10;99844.53;4348691;33;35235;-86
2022/07/19 03:41:32;;;;;;;2.17;1.20;;;;;;;15.35;55.18;99843.31;4333600;33;34484;-86
2022/07/19 03:44:01;;;;;;;4.55;1.40;;;;;;;15.35;54.76;99843.31;4333655;33;33894;-86
2022/07/19 03:46:29;;;;;;;2.85;1.30;;;;;;;16.09;52.79;99843.34;4345264;33;35435;-86
2022/07/19 03:48:57;;;;;;;2.97;1.20;;;;;;;16.59;51.58;99848.16;4346891;33;34063;-88
2022/07/19 03:51:25;;;;;;;3.90;1.37;;;;;;;16.89;50.91;99849.13;4334047;33;33489;-86
2022/07/19 03:53:53;;;;;;;2.37;1.10;;;;;;;16.78;50.94;99846.78;4348591;33;34847;-86
2022/07/19 03:56:21;;;;;;;3.25;1.40;;;;;;;16.66;52.80;99852.38;4346872;33;35777;-85
2022/07/19 03:58:49;;;;;;;3.12;1.25;;;;;;;16.55;53.24;99854.44;4334908;33;33600;-86
2022/07/19 04:01:17;;;;;;;24.67;2.50;;;;;;;16.82;51.65;99858.94;4345378;33;34371;-86
2022/07/19 04:03:50;;;;;;;5.35;1.60;;;;;;;17.24;50.77;99855.13;4346769;33;33915;-86
2022/07/19 04:06:18;;;;;;;3.17;1.30;;;;;;;17.13;51.39;99858.06;4342427;33;35866;-86
2022/07/19 04:08:46;;;;;;;4.20;1.50;;;;;;;17.09;52.96;99856.44;4344144;33;34481;-86
2022/07/19 04:11:14;;;;;;;4.32;1.77;;;;;;;16.72;54.25;99867.97;4346676;33;33653;-86
2022/07/19 04:13:42;;;;;;;8.60;1.40;;;;;;;17.53;52.17;99871.81;4348022;33;34008;-86
2022/07/19 04:16:10;;;;;;;1.58;1.10;;;;;;;17.80;51.87;99870.06;4346436;33;35089;-86
2022/07/19 04:18:38;;;;;;;2.47;1.30;;;;;;;18.13;51.15;99868.16;4346536;33;34481;-86
2022/07/19 04:21:07;;;;;;;4.25;1.25;;;;;;;18.51;49.61;99863.34;4327128;33;34128;-86
2022/07/19 04:23:34;;;;;;;6.80;1.45;;;;;;;18.40;50.70;99864.63;4319958;33;33722;-86
2022/07/19 04:26:03;;;;;;;2.42;1.50;;;;;;;17.92;52.54;99867.09;4344368;33;35754;-85
2022/07/19 04:28:31;;;;;;;7.05;1.55;;;;;;;18.15;53.16;99870.75;4349670;33;34193;-86
2022/07/19 04:30:59;;;;;;;6.25;1.50;;;;;;;18.45;53.02;99873.25;4348156;33;34313;-85
2022/07/19 04:33:27;;;;;;;4.62;1.20;;;;;;;19.22;50.66;99881.03;4348206;33;34313;-88
2022/07/19 04:35:55;;;;;;;3.83;1.70;;;;;;;19.44;50.15;99881.09;4331264;33;34948;-85
2022/07/19 04:38:23;;;;;;;9.73;1.70;;;;;;;19.01;51.85;99880.09;4349459;33;34478;-88
2022/07/19 04:40:51;;;;;;;16.65;2.80;;;;;;;20.03;48.67;99879.66;4347717;33;34439;-89
2022/07/19 04:43:26;;;;;;;11.27;2.28;;;;;;;19.63;50.52;99875.97;4349489;33;33484;-88
2022/07/19 04:45:54;;;;;;;2.60;1.42;;;;;;;19.94;50.26;99880.03;4346009;33;34713;-89
2022/07/19 04:48:22;;;;;;;2.00;1.30;;;;;;;20.07;50.08;99881.28;4347917;33;34410;-89
2022/07/19 04:50:50;;;;;;;22.42;1.70;;;;;;;20.27;49.85;99878.63;4345349;33;33564;-89
2022/07/19 04:53:18;;;;;;;2.17;1.08;;;;;;;20.30;49.89;99882.09;4349439;33;33869;-87
2022/07/19 04:55:46;;;;;;;2.37;1.17;;;;;;;20.97;47.05;99873.03;4345980;33;34898;-89
2022/07/19 04:58:14;;;;;;;2.40;1.17;;;;;;;21.39;45.68;99874.62;4349045;33;34389;-91
2022/07/19 05:00:42;;;;;;;5.47;1.33;;;;;;;22.00;44.64;99870.84;4334296;33;32341;-89
2022/07/19 05:03:10;;;;;;;2.97;1.25;;;;;;;22.09;45.41;99865.06;4349289;33;33826;-90
2022/07/19 05:05:38;;;;;;;8.35;1.30;;;;;;;21.89;45.91;99862.56;4346148;33;35008;-89
2022/07/19 05:08:06;;;;;;;2.12;1.30;;;;;;;22.21;45.05;99860.94;4349498;33;33957;-88
2022/07/19 05:10:35;;;;;;;1.87;1.20;;;;;;;22.66;42.16;99874.59;4347267;33;34460;-89
2022/07/19 05:13:03;;;;;;;1.83;1.30;;;;;;;22.07;41.89;99877.56;4349375;33;33464;-89
2022/07/19 05:15:31;;;;;;;3.47;1.23;;;;;;;22.38;42.29;99873.41;4342623;33;34612;-87
2022/07/19 05:17:59;;;;;;;3.70;1.23;;;;;;;22.95;44.57;99866.91;4347595;33;34366;-93
2022/07/19 05:20:26;;;;;;;5.37;1.12;;;;;;;23.58;39.38;99872.34;4346598;33;33476;-93
2022/07/19 05:22:55;;;;;;;3.08;1.00;;;;;;;24.31;35.56;99873.53;4348218;33;34872;-92
2022/07/19 05:25:22;;;;;;;4.18;1.05;;;;;;;24.49;36.93;99868.91;4347822;33;34066;-94
2022/07/19 05:27:50;;;;;;;2.08;1.05;;;;;;;24.72;35.26;99870.19;4350407;33;35200;-89
2022/07/19 05:30:19;;;;;;;1.35;1.10;;;;;;;24.97;36.09;99875.75;4334364;33;33212;-89
2022/07/19 05:32:46;;;;;;;2.62;1.17;;;;;;;25.64;34.50;99867.12;4349109;33;33272;-92
2022/07/19 05:35:14;;;;;;;1.87;1.00;;;;;;;25.23;35.92;99861.72;4347445;33;35829;-85
2022/07/19 05:37:43;;;;;;;6.22;3.83;;;;;;;25.58;36.23;99866.66;4335968;33;35276;-85
2022/07/19 05:40:11;;;;;;;7.87;4.30;;;;;;;26.11;34.62;99860.47;4347310;33;33681;-85
2022/07/19 05:42:38;;;;;;;4.35;2.37;;;;;;;25.58;33.50;99866.66;4349206;33;33900;-88
2022/07/19 05:45:07;;;;;;;5.90;1.75;;;;;;;25.95;34.57;99862.44;4319353;33;34983;-86
2022/07/19 05:47:35;;;;;;;2.92;1.02;;;;;;;25.63;34.72;99864.53;4349031;33;34498;-85
2022/07/19 05:50:04;;;;;;;8.15;3.53;;;;;;;26.55;32.16;99866.41;4347320;33;34402;-86
2022/07/19 05:52:32;;;;;;;5.28;3.10;;;;;;;26.58;32.50;99870.69;4348986;33;33819;-85
2022/07/19 05:55:07;;;;;;;6.07;2.75;;;;;;;26.79;32.42;99868.34;4345959;33;34926;-84
2022/07/19 05:57:35;;;;;;;3.55;1.70;;;;;;;26.84;33.62;99864.44;4347002;33;34423;-85
2022/07/19 06:00:04;;;;;;;5.75;1.02;;;;;;;27.50;32.78;99861.56;4347212;33;33590;-85
2022/07/19 06:02:38;;;;;;;4.93;1.20;;;;;;;28.56;31.03;99860.81;4346352;33;33967;-84
2022/07/19 06:05:07;;;;;;;4.75;1.80;;;;;;;28.95;29.97;99864.03;4345461;33;35903;-85
2022/07/19 06:07:35;;;;;;;11.65;3.83;;;;;;;29.36;29.68;99857.19;4335587;33;34571;-85
2022/07/19 06:10:04;;;;;;;9.48;4.20;;;;;;;29.12;31.12;99860.00;4345454;33;33779;-86
2022/07/19 06:12:32;;;;;;;6.97;2.55;;;;;;;29.07;29.58;99862.22;4347363;33;34668;-85
2022/07/19 06:15:00;;;;;;;6.93;1.90;;;;;;;29.24;29.46;99864.44;4346535;33;35926;-85
2022/07/19 06:17:28;;;;;;;7.43;2.10;;;;;;;29.05;29.21;99867.69;4348499;33;34367;-89
2022/07/19 06:19:57;;;;;;;9.13;4.18;;;;;;;29.03;28.83;99863.41;4349068;33;34636;-86
2022/07/19 06:22:25;;;;;;;3.47;1.58;;;;;;;29.36;28.44;99869.75;4348078;33;33377;-85
2022/07/19 06:24:53;;;;;;;6.45;1.17;;;;;;;30.41;27.84;99862.84;4334005;33;34883;-84
2022/07/19 06:27:21;;;;;;;2.85;1.05;;;;;;;30.52;27.88;99871.84;4347001;33;34379;-84
2022/07/19 06:29:49;;;;;;;5.78;1.73;;;;;;;30.15;27.21;99864.19;4348753;33;33239;-86
2022/07/19 06:32:17;;;;;;;4.60;1.45;;;;;;;30.51;28.21;99870.13;4347128;33;34732;-84
2022/07/19 06:34:45;;;;;;;2.47;1.25;;;;;;;29.90;29.03;99865.41;4337205;33;35527;-82
2022/07/19 06:37:13;;;;;;;3.40;1.30;;;;;;;30.33;26.82;99870.69;4333788;33;34085;-85
2022/07/19 06:39:41;;;;;;;2.80;1.20;;;;;;;30.15;27.21;99872.25;4333793;33;33369;-84
2022/07/19 06:42:10;;;;;;;9.13;1.40;;;;;;;31.54;26.70;99872.75;4333810;33;33986;-83
2022/07/19 06:44:37;;;;;;;4.40;1.12;;;;;;;31.62;25.61;99871.19;4333223;33;35165;-85
2022/07/19 06:47:05;;;;;;;4.25;1.08;;;;;;;32.55;24.43;99871.66;4333796;33;34489;-83
2022/07/19 06:49:34;;;;;;;5.05;1.48;;;;;;;32.41;24.06;99870.25;4342027;33;34373;-86
2022/07/19 06:52:02;;;;;;;7.72;1.58;;;;;;;31.52;25.53;99874.72;4345255;33;34697;-84
2022/07/19 06:54:29;;;;;;;2.53;1.20;;;;;;;31.92;24.71;99876.47;4348505;33;33472;-82
2022/07/19 06:56:58;;;;;;;10.00;1.42;;;;;;;33.17;23.21;99869.38;4347094;33;35252;-83
2022/07/19 06:59:26;;;;;;;3.90;1.58;;;;;;;32.72;23.70;99867.38;4348802;33;33593;-84
2022/07/19 07:01:54;;;;;;;3.90;1.35;;;;;;;32.18;23.71;99870.56;4347124;33;33917;-84
2022/07/19 07:04:23;;;;;;;2.75;1.75;;;;;;;32.78;23.83;99869.50;4347484;33;35046;-83
2022/07/19 07:07:04;;;;;;;3.37;1.12;;;;;;;33.78;22.81;99871.44;4346997;33;34506;-83
2022/07/19 07:09:33;;;;;;;10.65;1.27;;;;;;;33.97;21.58;99873.16;4342922;33;33694;-84
2022/07/19 07:12:00;;;;;;;7.97;1.30;;;;;;;34.04;21.24;99867.94;4342180;33;34871;-82
2022/07/19 07:14:28;;;;;;;4.12;0.85;;;;;;;33.64;20.28;99861.13;4346970;33;34936;-83
2022/07/19 07:16:56;;;;;;;1.00;0.90;;;;;;;34.07;18.38;99850.59;4346893;33;34447;-82
2022/07/19 07:19:24;;;;;;;1.52;0.80;;;;;;;32.95;19.43;99855.22;4335395;33;33103;-83
2022/07/19 07:21:52;;;;;;;4.90;1.00;;;;;;;33.74;18.53;99853.81;4346939;33;34524;-84
2022/07/19 07:24:20;;;;;;;3.72;1.23;;;;;;;32.58;20.32;99850.63;4329379;33;35848;-82
2022/07/19 07:26:48;;;;;;;4.20;0.80;;;;;;;32.65;20.47;99854.47;4346796;33;34391;-82
2022/07/19 07:29:16;;;;;;;2.75;1.25;;;;;;;33.32;19.52;99848.97;4347002;33;34371;-82
2022/07/19 07:31:44;;;;;;;1.80;0.88;;;;;;;34.64;19.30;99855.59;4342909;33;33972;-82
2022/07/19 07:34:12;;;;;;;2.62;0.90;;;;;;;32.61;19.51;99844.97;4348424;33;34938;-84
2022/07/19 07:36:40;;;;;;;3.25;0.90;;;;;;;33.17;20.59;99854.00;4346758;33;34811;-83
2022/07/19 07:39:08;;;;;;;1.25;1.00;;;;;;;33.49;19.31;99841.06;4348491;33;34466;-83
2022/07/19 07:41:36;;;;;;;2.30;1.02;;;;;;;33.03;21.34;99849.09;4346982;33;33853;-82
2022/07/19 07:44:12;;;;;;;1.52;0.80;;;;;;;33.03;20.78;99844.53;4316886;33;35053;-82
2022/07/19 07:46:40;;;;;;;7.75;5.00;;;;;;;33.98;18.87;99841.56;4346713;33;34363;-82
2022/07/19 07:49:09;;;;;;;6.95;2.87;;;;;;;33.58;19.40;99838.28;4333830;33;33574;-83
2022/07/19 07:51:37;;;;;;;4.03;1.20;;;;;;;34.37;19.70;99841.22;4346737;33;33935;-82
2022/07/19 07:54:13;;;;;;;2.75;1.10;;;;;;;33.95;19.10;99840.00;4348303;33;35000;-83
2022/07/19 07:56:42;;;;;;;1.90;1.00;;;;;;;35.02;17.76;99848.06;4346500;33;34389;-85
2022/07/19 07:59:11;;;;;;;7.72;3.58;;;;;;;34.52;18.64;99844.19;4329739;33;179050;-85
2022/07/19 08:01:39;;;;;;;2.83;0.90;;;;;;;34.75;18.62;99848.09;4344315;33;33846;-83
2022/07/19 08:04:09;;;;;;;3.03;1.40;;;;;;;36.08;16.32;99843.94;4323794;33;33148;-82
2022/07/19 08:06:38;;;;;;;4.20;1.87;;;;;;;35.19;18.98;99855.25;4333222;33;35106;-83
2022/07/19 08:09:06;;;;;;;1.42;0.93;;;;;;;36.63;17.67;99844.06;4332929;33;33785;-83
2022/07/19 08:11:34;;;;;;;5.80;1.30;;;;;;;35.10;18.89;99850.78;4320254;33;34735;-83
2022/07/19 08:14:03;;;;;;;3.78;1.40;;;;;;;35.24;18.87;99843.94;4333199;33;36067;-84
2022/07/19 08:16:31;;;;;;;6.57;1.98;;;;;;;36.34;18.25;99844.66;4333227;33;35436;-83
2022/07/19 08:18:59;;;;;;;4.57;1.42;;;;;;;35.14;19.10;99844.06;4341430;33;34515;-83
2022/07/19 08:21:27;;;;;;;5.72;3.80;;;;;;;35.07;19.79;99841.16;4346319;33;33850;-82
2022/07/19 08:23:55;;;;;;;4.65;1.83;;;;;;;35.55;17.42;99843.38;4347876;33;35792;-82
2022/07/19 08:26:23;;;;;;;3.22;1.65;;;;;;;35.88;17.64;99839.72;4344828;33;34519;-83
2022/07/19 08:28:51;;;;;;;2.97;1.20;;;;;;;36.68;18.63;99846.31;4347703;33;33851;-83
2022/07/19 08:31:19;;;;;;;5.85;1.27;;;;;;;36.68;16.54;99840.00;4344424;33;33917;-81
2022/07/19 08:33:48;;;;;;;2.53;0.80;;;;;;;35.63;18.17;99841.50;4333293;33;34982;-82
2022/07/19 08:36:16;;;;;;;4.78;1.23;;;;;;;34.70;18.58;99838.78;4346056;33;35291;-82
2022/07/19 08:38:45;;;;;;;11.50;6.53;;;;;;;36.40;16.46;99838.50;4347736;33;33779;-82
2022/07/19 08:41:17;;;;;;;3.12;1.35;;;;;;;36.80;17.21;99834.06;4333008;33;33974;-83
2022/07/19 08:43:45;;;;;;;43.10;2.95;;;;;;;35.98;18.63;99836.81;4346640;33;35127;-81
2022/07/19 08:46:13;;;;;;;5.07;1.40;;;;;;;36.01;17.57;99833.78;4324247;33;34397;-83
2022/07/19 08:48:42;;;;;;;7.93;1.73;;;;;;;36.20;19.82;99837.22;4345809;33;33616;-85
2022/07/19 08:51:18;;;;;;;8.20;1.40;;;;;;;36.23;18.13;99839.56;4333407;33;34646;-82
2022/07/19 08:53:48;;;;;;;4.37;1.12;;;;;;;34.61;19.99;99837.84;4334466;33;36004;-82
2022/07/19 08:59:06;;;;;;;5.50;1.15;;;;;;;35.96;17.45;99829.88;4346921;33;33624;-83
2022/07/19 09:01:36;;;;;;;2.30;1.02;;;;;;;34.91;18.03;99825.69;4344290;33;34017;-83
2022/07/19 09:04:07;;;;;;;1.95;1.15;;;;;;;36.02;17.49;99823.78;4346243;33;34631;-83
2022/07/19 09:06:40;;;;;;;2.65;0.88;;;;;;;36.90;16.98;99827.56;4345683;33;34508;-82
2022/07/19 09:09:09;;;;;;;3.25;1.95;;;;;;;36.31;16.95;99831.41;4348357;33;33686;-82
2022/07/19 09:11:48;;;;;;;6.32;1.42;;;;;;;35.95;18.53;99836.31;4347858;33;33744;-83
2022/07/19 09:14:38;;;;;;;3.78;1.17;;;;;;;35.95;17.80;99831.75;4349498;33;35863;-81
2022/07/19 09:17:11;;;;;;;2.25;1.00;;;;;;;35.61;17.89;99832.69;4341024;33;34555;-82
2022/07/19 09:19:42;;;;;;;4.62;1.12;;;;;;;35.62;17.24;99823.56;4348029;33;33388;-82
2022/07/19 09:22:15;;;;;;;4.25;1.05;;;;;;;35.62;18.60;99820.84;4347710;33;31765;-83
2022/07/19 09:24:45;;;;;;;4.25;1.20;;;;;;;35.25;19.58;99822.12;4349252;33;35060;-82
2022/07/19 09:27:16;;;;;;;2.65;1.15;;;;;;;36.12;17.93;99816.31;4347809;33;35410;-84
2022/07/19 09:29:45;;;;;;;3.67;1.02;;;;;;;36.07;17.32;99824.09;4349387;33;33752;-78
2022/07/19 09:32:19;;;;;;;6.37;1.20;;;;;;;35.60;18.31;99816.63;4347657;33;33229;-80
2022/07/19 09:34:54;;;;;;;3.08;1.00;;;;;;;35.27;20.14;99820.09;4336016;33;35094;-79
2022/07/19 09:37:28;;;;;;;4.90;1.30;;;;;;;36.20;16.83;99820.94;4346203;33;35340;-87
2022/07/19 09:40:01;;;;;;;1.05;0.93;;;;;;;35.45;18.02;99816.41;4335960;33;33920;-87
2022/07/19 09:42:41;;;;;;;4.70;1.00;;;;;;;36.68;18.21;99815.59;4334701;33;33959;-78
2022/07/19 09:45:11;;;;;;;1.55;0.90;;;;;;;37.36;17.76;99814.12;4346932;33;35839;-77
2022/07/19 09:47:45;;;;;;;2.92;1.10;;;;;;;37.43;16.56;99806.94;4330289;33;34780;-78
2022/07/19 09:50:16;;;;;;;3.05;1.00;;;;;;;36.63;18.42;99807.94;4347819;33;33526;-78
2022/07/19 09:52:47;;;;;;;4.40;1.20;;;;;;;37.63;16.77;99810.06;4347622;33;34746;-80
2022/07/19 09:55:17;;;;;;;5.22;1.45;;;;;;;37.14;16.72;99805.75;4349102;33;35774;-79
2022/07/19 09:57:48;;;;;;;3.80;1.20;;;;;;;37.29;15.67;99805.88;4347514;33;35342;-79
2022/07/19 10:00:18;;;;;;;5.70;2.10;;;;;;;37.73;15.26;99799.84;4347769;33;32611;-79
2022/07/19 10:02:52;;;;;;;4.40;1.10;;;;;;;37.61;16.27;99798.53;4346175;33;34031;-79
2022/07/19 10:05:21;;;;;;;19.02;2.72;;;;;;;36.11;17.27;99795.66;4348379;33;35031;-79
2022/07/19 10:07:50;;;;;;;9.55;1.85;;;;;;;37.16;16.55;99795.56;4344691;33;35313;-78
2022/07/19 10:10:19;;;;;;;9.13;1.80;;;;;;;38.20;17.42;99794.34;4319513;33;34527;-86
2022/07/19 10:12:50;;;;;;;2.05;1.02;;;;;;;37.46;16.43;99803.87;4339045;33;34624;-78
2022/07/19 10:15:19;;;;;;;6.12;1.40;;;;;;;37.98;15.69;99790.59;4333671;33;35216;-78
2022/07/19 10:17:56;;;;;;;4.35;1.30;;;;;;;38.82;15.17;99795.91;4344441;33;34171;-78
2022/07/19 10:20:26;;;;;;;12.65;1.52;;;;;;;38.03;15.60;99785.47;4346305;33;34646;-77
2022/07/19 10:22:57;;;;;;;3.17;1.20;;;;;;;38.07;16.13;99787.63;4349103;33;34388;-78
2022/07/19 10:25:38;;;;;;;3.10;0.90;;;;;;;38.97;14.47;99793.16;4345903;33;36049;-77
2022/07/19 10:28:27;;;;;;;4.85;1.00;;;;;;;36.92;17.48;99787.50;4348343;33;34534;-78
2022/07/19 10:31:27;;;;;;;2.90;1.27;;;;;;;37.32;16.21;99783.75;4334961;33;33708;-78
2022/07/19 10:34:04;;;;;;;5.93;1.17;;;;;;;37.75;15.59;99778.75;4344017;33;33821;-87
2022/07/19 10:36:38;;;;;;;8.82;4.15;;;;;;;37.34;16.10;99786.31;4344554;33;35939;-84
2022/07/19 10:39:33;;;;;;;2.22;1.10;;;;;;;36.84;18.66;99782.97;4348294;33;35399;-87
2022/07/19 10:42:09;;;;;;;1.77;0.90;;;;;;;36.95;16.12;99774.44;4318830;33;33746;-83
2022/07/19 10:45:01;;;;;;;2.90;1.00;;;;;;;34.98;19.07;99788.00;4318870;33;34829;-84
2022/07/19 10:47:42;;;;;;;3.55;1.70;;;;;;;34.55;18.50;99782.50;4319298;33;35863;-80
2022/07/19 10:50:17;;;;;;;3.55;1.40;;;;;;;35.42;18.35;99785.09;4325254;33;34554;-87
2022/07/19 10:52:47;;;;;;;2.28;1.02;;;;;;;34.93;18.86;99769.53;4347304;33;33742;-87
2022/07/19 10:55:24;;;;;;;1.45;1.10;;;;;;;36.28;17.10;99769.38;4346978;33;34701;-85
2022/07/19 10:58:05;;;;;;;4.12;1.10;;;;;;;37.30;15.63;99763.25;4348612;33;35828;-87
2022/07/19 11:00:48;;;;;;;1.75;1.10;;;;;;;35.60;17.02;99766.00;4347038;33;34529;-86
2022/07/19 11:03:22;;;;;;;2.12;0.90;;;;;;;34.84;19.18;99770.53;4348511;33;33530;-83
2022/07/19 11:05:55;;;;;;;1.98;1.02;;;;;;;36.57;16.23;99765.25;4346873;33;33999;-85
2022/07/19 11:08:35;;;;;;;2.05;0.98;;;;;;;36.46;16.41;99760.19;4327350;33;34038;-86
2022/07/19 11:11:10;;;;;;;3.35;1.10;;;;;;;37.85;16.46;99756.72;4347173;33;35339;-76
2022/07/19 11:13:50;;;;;;;1.95;0.85;;;;;;;37.12;16.85;99756.19;4346353;33;33559;-76
2022/07/19 11:16:24;;;;;;;3.50;0.90;;;;;;;36.40;17.98;99750.88;4346725;33;34798;-77
2022/07/19 11:19:04;;;;;;;8.55;1.00;;;;;;;37.30;16.67;99757.81;4348769;33;35923;-76
2022/07/19 11:21:37;;;;;;;2.75;1.10;;;;;;;36.80;18.30;99749.91;4346882;33;34649;-75
2022/07/19 11:24:07;;;;;;;2.75;0.98;;;;;;;37.03;17.75;99743.69;4346889;33;33417;-77
2022/07/19 11:26:37;;;;;;;6.22;1.52;;;;;;;37.55;18.04;99743.00;4346220;33;33774;-76
2022/07/19 11:29:13;;;;;;;6.65;1.30;;;;;;;38.27;16.71;99740.91;4346949;33;34926;-77
2022/07/19 11:31:47;;;;;;;1.77;1.10;;;;;;;36.99;18.55;99736.91;4346342;33;35414;-77
2022/07/19 11:34:17;;;;;;;2.92;1.87;;;;;;;37.69;18.16;99735.13;4348414;33;33779;-76
2022/07/19 11:36:56;;;;;;;2.37;1.15;;;;;;;37.42;17.75;99740.09;4346714;33;34744;-86
2022/07/19 11:39:46;;;;;;;8.82;1.50;;;;;;;36.87;17.27;99731.06;4317933;33;35178;-86
2022/07/19 11:42:14;;;;;;;1.90;1.12;;;;;;;37.70;16.48;99728.69;4337355;33;34592;-87
2022/07/19 11:44:43;;;;;;;3.72;1.30;;;;;;;36.75;17.75;99721.63;4346913;33;33774;-78
2022/07/19 11:47:10;;;;;;;2.85;0.95;;;;;;;36.67;16.86;99725.16;4346396;33;34028;-77
2022/07/19 11:49:39;;;;;;;5.12;0.90;;;;;;;36.40;17.64;99724.59;4334501;33;35933;-82